createdAt,value
2019-03-22T00:02:40.000Z,87.70
2019-03-22T00:12:57.706Z,84.14
2019-03-22T00:22:33.617Z,88.36
2019-03-22T00:32:49.764Z,82.31
2019-03-22T00:45:55.349Z,84.48
2019-03-22T00:46:53.513Z,83.91
2019-03-22T01:04:08.519Z,82.12
2019-03-22T01:05:05.153Z,82.59
2019-03-22T01:08:48.286Z,84.01
2019-03-22T01:22:07.155Z,89.59
2019-03-22T01:23:12.743Z,89.50
2019-03-22T01:29:04.686Z,86.47
2019-03-22T01:30:10.931Z,87.84
2019-03-22T01:42:15.557Z,93.28
2019-03-22T01:43:13.864Z,92.33
2019-03-22T01:48:13.782Z,86.66
2019-03-22T01:48:48.904Z,86.37
2019-03-22T01:49:47.427Z,84.53
2019-03-22T01:50:44.821Z,84.39
2019-03-22T01:53:48.248Z,84.16
2019-03-22T01:57:52.884Z,86.99
2019-03-22T01:58:44.714Z,88.88
2019-03-22T02:03:18.511Z,92.90
2019-03-22T02:10:16.721Z,89.69
2019-03-22T02:13:56.214Z,91.01
2019-03-22T02:17:49.086Z,91.39
2019-03-22T02:22:24.917Z,89.97
2019-03-22T02:23:20.594Z,90.34
2019-03-22T02:25:56.542Z,88.69
2019-03-22T02:28:03.278Z,88.98
2019-03-22T02:38:37.388Z,93.80
2019-03-22T02:42:12.188Z,92.10
2019-03-22T02:58:38.764Z,91.91
2019-03-22T02:59:42.806Z,92.29
2019-03-22T03:04:10.575Z,96.07
2019-03-22T03:14:53.886Z,99.47
2019-03-22T03:22:51.205Z,99.99
2019-03-22T03:23:50.048Z,96.35
2019-03-22T03:25:57.417Z,92.10
2019-03-22T03:32:27.658Z,93.42
2019-03-22T03:33:27.959Z,93.51
2019-03-22T03:34:28.171Z,93.61
2019-03-22T04:27:12.397Z,95.78
2019-03-22T04:48:01.388Z,89.40
2019-03-22T05:01:21.980Z,98.66
2019-03-22T05:03:17.130Z,98.47
2019-03-22T05:06:54.020Z,99.04
2019-03-22T05:07:50.263Z,99.14
2019-03-22T05:13:29.284Z,98.52
2019-03-22T05:14:30.887Z,98.33
2019-03-22T05:15:22.369Z,97.91
2019-03-22T05:16:20.230Z,98.66
2019-03-22T05:17:23.553Z,98.28
2019-03-22T05:31:48.932Z,99.33
2019-03-22T05:32:33.708Z,99.89
2019-03-22T05:33:33.721Z,99.99
2019-03-22T05:34:30.842Z,99.99
2019-03-22T05:35:35.695Z,99.99
2019-03-22T05:36:34.115Z,99.99
2019-03-22T05:37:33.255Z,99.99
2019-03-22T05:42:09.833Z,99.04
2019-03-22T05:43:08.674Z,98.57
2019-03-22T05:44:05.757Z,99.04
2019-03-22T05:45:04.785Z,99.42
2019-03-22T05:47:41.461Z,99.99
2019-03-22T05:48:33.947Z,99.99
2019-03-22T05:50:38.403Z,99.99
2019-03-22T05:51:36.964Z,99.99
2019-03-22T05:52:37.616Z,99.99
2019-03-22T05:54:34.564Z,99.99
2019-03-22T06:24:45.206Z,99.99
2019-03-22T12:24:46.330Z,44.10
2019-03-22T12:25:21.038Z,45.64
2019-03-22T12:26:20.931Z,44.20
2019-03-22T14:48:48.615Z,43.16
2019-03-22T14:49:48.321Z,43.26
2019-03-22T14:50:48.314Z,44.51
2019-03-22T14:59:23.735Z,44.79
2019-03-22T15:00:23.724Z,42.97
2019-03-22T15:01:23.620Z,42.97
2019-03-22T15:04:23.400Z,44.43
2019-03-22T15:05:23.200Z,43.35
2019-03-22T15:06:23.186Z,43.76
2019-03-22T15:07:23.098Z,42.80
2019-03-22T15:08:23.039Z,43.18
2019-03-22T15:09:22.961Z,44.43
2019-03-22T15:10:22.872Z,44.82
2019-03-22T15:11:22.858Z,45.68
2019-03-22T15:12:22.760Z,46.16
2019-03-22T15:13:22.680Z,44.53
2019-03-22T15:14:22.599Z,43.08
2019-03-22T15:15:22.642Z,43.18
2019-03-22T15:16:22.482Z,42.97
2019-03-22T15:17:22.427Z,42.41
2019-03-22T15:18:22.234Z,42.32
2019-03-22T15:19:22.201Z,43.18
2019-03-22T15:20:22.112Z,42.70
2019-03-22T15:21:22.104Z,42.99
2019-03-22T15:22:22.116Z,42.89
2019-03-22T15:23:22.005Z,43.28
2019-03-22T15:24:21.855Z,44.70
2019-03-22T15:25:21.795Z,43.64
2019-03-22T15:26:21.669Z,44.70
2019-03-22T15:27:21.702Z,44.12
2019-03-22T15:28:21.589Z,42.77
2019-03-22T15:29:21.516Z,44.60
2019-03-22T15:30:21.470Z,44.31
2019-03-22T15:31:21.394Z,43.16
2019-03-22T15:32:21.285Z,44.22
2019-03-22T15:33:21.213Z,43.93
2019-03-22T15:34:21.118Z,43.93
2019-03-22T15:35:21.282Z,44.31
2019-03-22T15:36:21.012Z,44.60
2019-03-22T15:37:21.064Z,44.34
2019-03-22T15:38:21.071Z,43.35
2019-03-22T15:39:21.026Z,43.57
2019-03-22T15:40:20.664Z,43.93
2019-03-22T15:41:20.646Z,44.12
2019-03-22T15:42:20.545Z,44.22
2019-03-22T15:43:20.443Z,43.93
2019-03-22T15:44:20.479Z,43.07
2019-03-22T15:45:20.329Z,43.54
2019-03-22T15:46:20.324Z,44.24
2019-03-22T15:47:20.173Z,44.22
2019-03-22T15:48:20.157Z,43.08
2019-03-22T15:49:20.024Z,42.70
2019-03-22T15:50:19.948Z,42.70
2019-03-22T15:51:19.886Z,43.57
2019-03-22T15:52:19.825Z,43.66
2019-03-22T15:53:19.784Z,43.28
2019-03-22T15:54:19.665Z,43.66
2019-03-22T15:55:19.585Z,44.14
2019-03-22T15:56:19.547Z,43.95
2019-03-22T15:57:19.466Z,44.34
2019-03-22T15:58:19.407Z,43.57
2019-03-22T15:59:19.353Z,44.41
2019-03-22T16:00:19.218Z,44.43
2019-03-22T16:01:19.204Z,44.51
2019-03-22T16:02:19.132Z,45.28
2019-03-22T16:03:19.087Z,43.84
2019-03-22T16:04:18.995Z,43.64
2019-03-22T16:05:18.860Z,43.26
2019-03-22T16:06:18.801Z,44.22
2019-03-22T16:07:18.761Z,44.12
2019-03-22T16:08:18.640Z,43.74
2019-03-22T16:09:18.576Z,44.41
2019-03-22T16:10:18.538Z,44.22
2019-03-22T16:11:18.472Z,43.62
2019-03-22T16:12:18.400Z,44.38
2019-03-22T16:13:18.320Z,45.15
2019-03-22T16:14:18.223Z,44.58
2019-03-22T16:15:18.142Z,45.73
2019-03-22T16:16:18.062Z,45.92
2019-03-22T16:17:17.997Z,46.21
2019-03-22T16:18:17.957Z,46.12
2019-03-22T16:19:17.851Z,45.54
2019-03-22T16:20:17.794Z,45.64
2019-03-22T16:21:17.769Z,45.64
2019-03-22T16:22:17.739Z,46.02
2019-03-22T16:23:17.611Z,45.73
2019-03-22T16:24:17.497Z,45.64
2019-03-22T16:25:17.456Z,46.79
2019-03-22T16:26:17.346Z,46.98
2019-03-22T16:27:17.279Z,46.86
2019-03-22T16:28:17.281Z,46.58
2019-03-22T16:29:17.144Z,46.58
2019-03-22T16:30:17.121Z,47.44
2019-03-22T16:31:17.027Z,48.49
2019-03-22T16:32:16.920Z,48.30
2019-03-22T16:33:16.896Z,48.40
2019-03-22T16:34:16.766Z,48.79
2019-03-22T16:35:16.696Z,49.26
2019-03-22T16:36:16.686Z,49.36
2019-03-22T16:37:16.554Z,49.36
2019-03-22T16:38:16.497Z,50.01
2019-03-22T16:39:16.507Z,50.01
2019-03-22T16:40:23.801Z,50.87
2019-03-22T16:41:16.297Z,51.06
2019-03-22T16:42:16.197Z,53.17
2019-03-22T16:43:16.115Z,53.08
2019-03-22T16:44:16.114Z,52.48
2019-03-22T16:45:15.973Z,53.34
2019-03-22T16:46:15.917Z,53.24
2019-03-22T16:47:15.839Z,52.86
2019-03-22T16:48:15.752Z,51.90
2019-03-22T16:49:15.724Z,54.01
2019-03-22T16:50:15.609Z,53.72
2019-03-22T16:51:15.536Z,54.01
2019-03-22T16:52:15.486Z,53.82
2019-03-22T16:53:15.473Z,54.27
2019-03-22T16:54:15.874Z,54.27
2019-03-22T16:55:15.281Z,54.27
2019-03-22T16:56:15.173Z,54.85
2019-03-22T16:57:15.148Z,54.75
2019-03-22T16:58:15.078Z,56.09
2019-03-22T16:59:15.006Z,55.71
2019-03-22T17:00:14.879Z,56.35
2019-03-22T17:01:14.809Z,56.45
2019-03-22T17:02:14.781Z,57.03
2019-03-22T17:03:14.658Z,56.35
2019-03-22T17:04:14.591Z,57.70
2019-03-22T17:05:15.379Z,58.08
2019-03-22T17:06:14.482Z,58.08
2019-03-22T17:07:14.367Z,57.60
2019-03-22T17:08:14.302Z,57.89
2019-03-22T17:09:14.224Z,58.17
2019-03-22T17:10:14.146Z,59.01
2019-03-22T17:11:14.076Z,58.81
2019-03-22T17:12:14.066Z,58.44
2019-03-22T17:13:13.937Z,58.15
2019-03-22T17:14:13.853Z,59.30
2019-03-22T17:15:13.800Z,59.77
2019-03-22T17:16:13.715Z,60.06
2019-03-22T17:17:13.629Z,59.87
2019-03-22T17:18:13.633Z,59.94
2019-03-22T17:19:13.574Z,60.13
2019-03-22T17:20:13.462Z,60.51
2019-03-22T17:21:13.417Z,60.51
2019-03-22T17:22:13.319Z,61.08
2019-03-22T17:23:13.212Z,61.18
2019-03-22T17:24:13.169Z,61.94
2019-03-22T17:25:13.049Z,62.49
2019-03-22T17:26:12.972Z,62.40
2019-03-22T17:27:12.894Z,62.87
2019-03-22T17:28:12.834Z,62.97
2019-03-22T17:29:12.789Z,62.77
2019-03-22T17:30:12.757Z,62.65
2019-03-22T17:31:12.615Z,62.55
2019-03-22T17:32:12.531Z,62.37
2019-03-22T17:33:12.446Z,62.37
2019-03-22T17:34:14.444Z,62.37
2019-03-22T17:35:12.354Z,61.95
2019-03-22T17:36:12.232Z,61.47
2019-03-22T17:37:12.150Z,62.04
2019-03-22T17:38:12.107Z,62.52
2019-03-22T17:39:12.088Z,64.05
2019-03-22T17:40:11.974Z,65.17
2019-03-22T17:41:11.909Z,65.17
2019-03-22T17:42:11.783Z,65.17
2019-03-22T17:43:11.829Z,64.59
2019-03-22T17:44:11.633Z,64.40
2019-03-22T17:45:11.559Z,64.88
2019-03-22T17:46:11.535Z,64.12
2019-03-22T17:47:11.409Z,64.85
2019-03-22T17:48:11.469Z,66.47
2019-03-22T17:49:11.430Z,66.66
2019-03-22T17:50:11.182Z,65.80
2019-03-22T17:51:11.129Z,65.77
2019-03-22T17:52:11.095Z,66.63
2019-03-22T17:53:11.020Z,67.49
2019-03-22T17:54:11.046Z,68.51
2019-03-22T17:55:10.830Z,69.93
2019-03-22T17:56:10.773Z,70.76
2019-03-22T17:57:18.336Z,72.19
2019-03-22T17:58:10.651Z,72.86
2019-03-22T17:59:10.508Z,72.67
2019-03-22T18:00:10.535Z,73.43
2019-03-22T18:01:10.398Z,73.52
2019-03-22T18:02:10.280Z,72.76
2019-03-22T18:03:10.246Z,72.38
2019-03-22T18:04:10.193Z,70.76
2019-03-22T18:05:10.045Z,71.23
2019-03-22T18:06:09.971Z,70.95
2019-03-22T18:07:09.944Z,70.47
2019-03-22T18:08:09.891Z,68.76
2019-03-22T18:09:09.794Z,70.63
2019-03-22T18:10:09.905Z,70.25
2019-03-22T18:11:09.733Z,72.16
2019-03-22T18:12:09.590Z,72.34
2019-03-22T18:13:09.476Z,71.20
2019-03-22T18:14:09.625Z,71.11
2019-03-22T18:15:09.312Z,71.01
2019-03-22T18:16:09.319Z,70.72
2019-03-22T18:17:09.230Z,71.01
2019-03-22T18:18:09.238Z,71.58
2019-03-22T18:19:09.471Z,72.34
2019-03-22T18:20:08.962Z,71.87
2019-03-22T18:21:08.997Z,71.11
2019-03-22T18:22:08.772Z,71.39
2019-03-22T18:23:11.572Z,71.11
2019-03-22T18:24:09.104Z,71.11
2019-03-22T18:25:10.128Z,71.20
2019-03-22T18:26:17.323Z,71.68
2019-03-22T18:27:10.202Z,71.39
2019-03-22T18:28:09.914Z,71.96
2019-03-22T18:29:08.529Z,71.96
2019-03-22T18:30:08.183Z,72.25
2019-03-22T18:31:08.278Z,71.01
2019-03-22T18:32:08.155Z,71.30
2019-03-22T18:33:08.031Z,71.11
2019-03-22T18:34:08.006Z,71.48
2019-03-22T18:35:08.113Z,70.15
2019-03-22T18:36:07.693Z,67.00
2019-03-22T18:37:07.760Z,68.34
2019-03-22T18:38:07.602Z,68.78
2019-03-22T18:39:07.580Z,69.17
2019-03-22T18:40:07.664Z,69.45
2019-03-22T18:41:07.400Z,70.78
2019-03-22T18:42:07.334Z,71.07
2019-03-22T18:43:07.290Z,70.69
2019-03-22T18:44:07.165Z,70.40
2019-03-22T18:45:07.070Z,71.26
2019-03-22T18:46:07.076Z,70.97
2019-03-22T18:47:06.876Z,70.31
2019-03-22T18:48:06.984Z,70.59
2019-03-22T18:49:06.864Z,72.08
2019-03-22T18:50:06.726Z,71.70
2019-03-22T18:51:06.621Z,71.51
2019-03-22T18:52:08.171Z,71.32
2019-03-22T18:53:06.474Z,71.70
2019-03-22T18:54:06.289Z,71.42
2019-03-22T18:55:06.235Z,70.27
2019-03-22T18:56:06.196Z,70.75
2019-03-22T18:57:06.082Z,71.61
2019-03-22T18:58:05.989Z,71.51
2019-03-22T18:59:05.910Z,71.32
2019-03-22T19:00:05.940Z,71.61
2019-03-22T19:01:05.844Z,71.13
2019-03-22T19:02:05.724Z,70.47
2019-03-22T19:03:05.697Z,70.84
2019-03-22T19:04:05.740Z,69.99
2019-03-22T19:05:05.546Z,67.99
2019-03-22T19:06:05.408Z,68.08
2019-03-22T19:07:05.415Z,69.42
2019-03-22T19:08:05.215Z,69.42
2019-03-22T19:09:05.185Z,70.56
2019-03-22T19:10:05.248Z,71.67
2019-03-22T19:11:05.139Z,72.24
2019-03-22T19:12:04.947Z,72.24
2019-03-22T19:13:04.890Z,72.52
2019-03-22T19:14:04.742Z,73.57
2019-03-22T19:15:04.672Z,75.24
2019-03-22T19:16:04.633Z,75.81
2019-03-22T19:17:04.522Z,77.24
2019-03-22T19:18:04.459Z,78.16
2019-03-22T19:19:04.412Z,78.82
2019-03-22T19:20:04.278Z,78.82
2019-03-22T19:21:04.199Z,78.82
2019-03-22T19:22:04.232Z,78.63
2019-03-22T19:23:04.083Z,79.39
2019-03-22T19:24:04.006Z,78.82
2019-03-22T19:25:03.891Z,78.72
2019-03-22T19:26:03.872Z,78.77
2019-03-22T19:27:03.733Z,77.62
2019-03-22T19:28:03.656Z,76.39
2019-03-22T19:29:03.650Z,77.15
2019-03-22T19:30:03.516Z,75.34
2019-03-22T19:31:03.460Z,73.63
2019-03-22T19:32:13.143Z,73.25
2019-03-22T19:33:03.319Z,72.58
2019-03-22T19:34:03.227Z,72.58
2019-03-22T19:35:03.110Z,73.06
2019-03-22T19:36:03.087Z,73.53
2019-03-22T19:37:02.998Z,73.63
2019-03-22T19:38:02.916Z,73.82
2019-03-22T19:39:02.803Z,73.63
2019-03-22T19:40:02.722Z,74.20
2019-03-22T19:41:02.643Z,74.01
2019-03-22T19:42:02.566Z,73.63
2019-03-22T19:43:02.496Z,72.20
2019-03-22T19:44:02.412Z,71.72
2019-03-22T19:45:02.377Z,72.39
2019-03-22T19:46:02.283Z,72.58
2019-03-22T19:47:02.170Z,72.49
2019-03-22T19:48:02.093Z,72.58
2019-03-22T19:49:02.015Z,73.15
2019-03-22T19:50:01.933Z,73.15
2019-03-22T19:51:01.857Z,73.72
2019-03-22T19:52:01.822Z,74.20
2019-03-22T19:53:01.721Z,73.34
2019-03-22T19:54:01.671Z,72.67
2019-03-22T19:55:01.540Z,72.01
2019-03-22T19:56:01.461Z,72.30
2019-03-22T19:57:01.417Z,73.91
2019-03-22T19:58:01.370Z,73.63
2019-03-22T19:59:01.226Z,72.49
2019-03-22T20:00:01.159Z,72.07
2019-03-22T20:01:01.130Z,73.53
2019-03-22T20:02:01.049Z,73.11
2019-03-22T20:03:00.923Z,73.40
2019-03-22T20:04:00.847Z,73.30
2019-03-22T20:05:04.629Z,73.78
2019-03-22T20:06:00.760Z,73.97
2019-03-22T20:07:00.663Z,74.73
2019-03-22T20:08:00.602Z,75.21
2019-03-22T20:09:00.487Z,74.63
2019-03-22T20:10:00.428Z,74.44
2019-03-22T20:11:00.333Z,74.82
2019-03-22T20:12:00.209Z,73.97
2019-03-22T20:13:00.152Z,73.59
2019-03-22T20:14:00.097Z,72.64
2019-03-22T20:15:00.015Z,73.21
2019-03-22T20:15:59.925Z,73.59
2019-03-22T20:16:59.812Z,73.97
2019-03-22T20:17:59.798Z,74.44
2019-03-22T20:18:59.668Z,74.73
2019-03-22T20:19:59.576Z,74.82
2019-03-22T20:20:59.536Z,76.16
2019-03-22T20:21:59.423Z,77.11
2019-03-22T20:22:59.422Z,78.53
2019-03-22T20:23:59.271Z,78.59
2019-03-22T20:24:59.186Z,78.30
2019-03-22T20:25:59.105Z,78.21
2019-03-22T20:26:59.068Z,76.40
2019-03-22T20:27:58.942Z,75.64
2019-03-22T20:28:58.868Z,74.98
2019-03-22T20:29:58.804Z,74.60
2019-03-22T20:30:58.759Z,76.03
2019-03-22T20:31:58.645Z,77.92
2019-03-22T20:32:58.609Z,79.50
2019-03-22T20:33:58.518Z,80.83
2019-03-22T20:34:58.414Z,81.30
2019-03-22T20:35:58.356Z,83.39
2019-03-22T20:36:58.282Z,84.63
2019-03-22T20:37:58.219Z,85.77
2019-03-22T20:38:58.124Z,87.24
2019-03-22T20:39:58.003Z,89.00
2019-03-22T20:40:57.961Z,90.00
2019-03-22T20:41:57.913Z,90.76
2019-03-22T20:42:57.762Z,91.71
2019-03-22T20:43:57.683Z,93.41
2019-03-22T20:44:57.611Z,93.99
2019-03-22T20:45:57.530Z,93.80
2019-03-22T20:46:57.445Z,94.08
2019-03-22T20:47:57.437Z,94.32
2019-03-22T20:48:57.292Z,94.18
2019-03-22T20:49:57.214Z,94.51
2019-03-22T20:50:57.130Z,93.56
2019-03-22T20:51:57.051Z,90.52
2019-03-22T20:52:56.965Z,86.34
2019-03-22T20:53:56.892Z,82.92
2019-03-22T20:54:56.865Z,80.74
2019-03-22T20:55:56.766Z,79.22
2019-03-22T20:56:56.704Z,78.70
2019-03-22T20:57:56.583Z,80.45
2019-03-22T20:58:56.490Z,81.26
2019-03-22T20:59:56.442Z,81.84
2019-03-22T21:00:56.360Z,81.65
2019-03-22T21:01:56.265Z,81.93
2019-03-22T21:02:56.191Z,81.55
2019-03-22T21:03:56.132Z,81.55
2019-03-22T21:04:56.009Z,81.36
2019-03-22T21:05:55.954Z,81.36
2019-03-22T21:06:55.863Z,80.22
2019-03-22T21:07:55.825Z,78.32
2019-03-22T21:08:55.739Z,77.56
2019-03-22T21:09:55.663Z,76.99
2019-03-22T21:10:55.536Z,77.09
2019-03-22T21:11:55.515Z,78.32
2019-03-22T21:12:55.379Z,79.71
2019-03-22T21:13:55.298Z,81.07
2019-03-22T21:14:55.216Z,82.88
2019-03-22T21:15:55.143Z,83.22
2019-03-22T21:16:55.106Z,83.50
2019-03-22T21:17:54.980Z,81.98
2019-03-22T21:18:54.901Z,80.51
2019-03-22T21:19:54.856Z,79.99
2019-03-22T21:20:54.743Z,80.37
2019-03-22T21:21:54.677Z,81.13
2019-03-22T21:22:54.579Z,82.74
2019-03-22T21:23:54.502Z,83.64
2019-03-22T21:24:54.418Z,82.50
2019-03-22T21:25:54.335Z,80.88
2019-03-22T21:26:54.314Z,79.33
2019-03-22T21:27:54.222Z,78.56
2019-03-22T21:28:54.095Z,79.14
2019-03-22T21:29:54.023Z,80.56
2019-03-22T21:30:54.004Z,82.46
2019-03-22T21:31:53.957Z,83.50
2019-03-22T21:32:53.786Z,85.11
2019-03-22T21:33:53.730Z,86.25
2019-03-22T21:34:53.675Z,87.01
2019-03-22T21:35:53.607Z,86.25
2019-03-22T21:36:53.462Z,85.21
2019-03-22T21:37:53.393Z,84.64
2019-03-22T21:38:53.303Z,81.70
2019-03-22T21:39:53.264Z,81.51
2019-03-22T21:40:53.183Z,81.41
2019-03-22T21:41:53.075Z,81.23
2019-03-22T21:42:52.979Z,80.37
2019-03-22T21:43:52.903Z,81.32
2019-03-22T21:44:52.819Z,81.41
2019-03-22T21:45:52.772Z,81.04
2019-03-22T21:46:52.656Z,81.13
2019-03-22T21:47:52.632Z,83.97
2019-03-22T21:48:52.549Z,85.02
2019-03-22T21:49:52.459Z,84.74
2019-03-22T21:50:52.339Z,81.60
2019-03-22T21:51:52.258Z,80.18
2019-03-22T21:52:52.185Z,81.41
2019-03-22T21:53:52.151Z,81.60
2019-03-22T21:54:52.099Z,81.04
2019-03-22T21:55:54.140Z,79.71
2019-03-22T21:56:51.906Z,79.71
2019-03-22T21:57:51.778Z,80.24
2019-03-22T21:58:51.758Z,82.70
2019-03-22T21:59:51.673Z,84.22
2019-03-22T22:00:51.534Z,84.59
2019-03-22T22:01:51.460Z,85.45
2019-03-22T22:02:51.423Z,86.21
2019-03-22T22:03:51.294Z,85.83
2019-03-22T22:04:51.222Z,86.02
2019-03-22T22:05:51.179Z,84.31
2019-03-22T22:06:51.057Z,83.55
2019-03-22T22:07:51.021Z,82.98
2019-03-22T22:08:50.894Z,82.60
2019-03-22T22:09:50.848Z,82.13
2019-03-22T22:10:59.361Z,81.18
2019-03-22T22:11:50.716Z,81.37
2019-03-22T22:12:50.580Z,82.51
2019-03-22T22:13:50.498Z,83.36
2019-03-22T22:14:50.408Z,83.94
2019-03-22T22:15:50.344Z,83.36
2019-03-22T22:16:50.258Z,83.27
2019-03-22T22:17:50.169Z,82.98
2019-03-22T22:18:50.088Z,82.32
2019-03-22T22:19:50.034Z,82.98
2019-03-22T22:20:49.937Z,84.41
2019-03-22T22:21:49.886Z,85.45
2019-03-22T22:22:49.811Z,86.87
2019-03-22T22:23:49.692Z,87.77
2019-03-22T22:24:49.606Z,88.16
2019-03-22T22:25:49.574Z,88.92
2019-03-22T22:26:49.508Z,87.87
2019-03-22T22:27:49.408Z,86.55
2019-03-22T22:28:49.354Z,85.97
2019-03-22T22:29:49.271Z,84.36
2019-03-22T22:30:49.131Z,83.61
2019-03-22T22:31:49.046Z,85.31
2019-03-22T22:32:49.014Z,86.02
2019-03-22T22:33:48.897Z,86.21
2019-03-22T22:34:49.021Z,85.83
2019-03-22T22:35:58.133Z,86.11
2019-03-22T22:36:48.650Z,83.36
2019-03-22T22:37:48.606Z,81.56
2019-03-22T22:38:48.472Z,81.18
2019-03-22T22:39:48.456Z,80.90
2019-03-22T22:40:48.394Z,81.09
2019-03-22T22:41:48.236Z,80.99
2019-03-22T22:42:48.213Z,81.56
2019-03-22T22:43:48.135Z,81.85
2019-03-22T22:44:48.035Z,82.23
2019-03-22T22:45:47.915Z,82.79
2019-03-22T22:46:47.830Z,81.47
2019-03-22T22:47:47.752Z,81.75
2019-03-22T22:48:47.664Z,82.89
2019-03-22T22:49:48.384Z,83.65
2019-03-22T22:50:47.510Z,84.22
2019-03-22T22:51:47.514Z,83.98
2019-03-22T22:52:47.431Z,85.31
2019-03-22T22:53:47.278Z,86.74
2019-03-22T22:54:47.244Z,87.49
2019-03-22T22:55:47.098Z,87.68
2019-03-22T22:56:47.195Z,87.68
2019-03-22T22:57:46.939Z,86.74
2019-03-22T22:58:46.898Z,86.35
2019-03-22T22:59:46.785Z,86.16
2019-03-22T23:00:46.998Z,86.88
2019-03-22T23:01:46.672Z,86.98
2019-03-22T23:02:46.542Z,87.54
2019-03-22T23:03:46.464Z,87.73
2019-03-22T23:04:46.372Z,88.11
2019-03-22T23:05:46.292Z,89.48
2019-03-22T23:06:46.212Z,89.96
2019-03-22T23:07:46.135Z,89.01
2019-03-22T23:08:46.119Z,88.73
2019-03-22T23:09:46.049Z,88.06
2019-03-22T23:10:45.901Z,85.60
2019-03-22T23:11:45.802Z,82.37
2019-03-22T23:12:45.793Z,81.62
2019-03-22T23:13:45.642Z,81.71
2019-03-22T23:14:45.555Z,82.56
2019-03-22T23:15:45.548Z,84.17
2019-03-22T23:16:45.395Z,85.88
2019-03-22T23:17:45.374Z,87.30
2019-03-22T23:18:45.284Z,87.87
2019-03-22T23:19:45.184Z,88.35
2019-03-22T23:20:45.119Z,89.39
2019-03-22T23:21:44.991Z,90.10
2019-03-22T23:22:44.916Z,90.48
2019-03-22T23:23:44.830Z,90.10
2019-03-22T23:24:44.825Z,88.78
2019-03-22T23:25:44.667Z,87.92
2019-03-22T23:26:44.588Z,86.79
2019-03-22T23:27:44.571Z,85.46
2019-03-22T23:28:44.428Z,84.70
2019-03-22T23:29:44.408Z,84.32
2019-03-22T23:30:44.325Z,84.51
2019-03-22T23:31:45.902Z,85.27
2019-03-22T23:32:44.143Z,84.99
2019-03-22T23:33:44.041Z,85.65
2019-03-22T23:34:43.988Z,86.79
2019-03-22T23:35:43.865Z,88.49
2019-03-22T23:36:43.779Z,88.78
2019-03-22T23:37:43.756Z,89.34
2019-03-22T23:38:43.616Z,89.82
2019-03-22T23:39:43.531Z,90.39
2019-03-22T23:40:43.495Z,91.90
2019-03-22T23:41:43.445Z,93.32
2019-03-22T23:42:43.313Z,94.18
2019-03-22T23:43:43.212Z,93.80
2019-03-22T23:44:43.128Z,94.27
2019-03-22T23:45:43.040Z,94.93
2019-03-22T23:46:43.002Z,96.26
2019-03-22T23:47:42.929Z,97.30
2019-03-22T23:48:42.843Z,97.40
2019-03-22T23:49:42.761Z,97.68
2019-03-22T23:50:42.671Z,97.78
2019-03-22T23:51:42.545Z,95.69
2019-03-22T23:52:42.471Z,95.79
2019-03-22T23:53:42.391Z,96.07
2019-03-22T23:54:42.313Z,95.60
2019-03-22T23:55:42.279Z,96.02
2019-03-22T23:56:42.155Z,98.16
2019-03-22T23:57:42.059Z,97.97
2019-03-22T23:58:41.989Z,98.11
2019-03-22T23:59:41.892Z,98.16
